Time;durP1;ratioP1;P1;durP2;ratioP2;P2;SDS_P1;SDS_P2;PMS_P1;PMS_P2;Temp;Humidity;BMP_temperature;BMP_pressure;BME280_temperature;BME280_humidity;BME280_pressure;Samples;Min_cycle;Max_cycle;Signal;HPM_P1;HPM_P2
2022/03/31 00:00:51;;;;;;;;;;;;;;;16.60;52.35;98244.00;4431718;32;20003;-71
2022/03/31 00:03:19;;;;;;;;;;;;;;;16.55;52.18;98241.53;4433258;32;20008;-71
2022/03/31 00:05:48;;;;;;;;;;;;;;;16.40;52.58;98236.81;4432935;32;19984;-73
2022/03/31 00:08:15;;;;;;;;;;;;;;;16.47;52.92;98238.34;4432532;32;19994;-72
2022/03/31 00:10:46;;;;;;;;;;;;;;;16.50;52.90;98227.78;4446786;32;20029;-72
2022/03/31 00:13:17;;;;;;;;;;;;;;;16.28;53.53;98238.94;4447058;32;19981;-71
2022/03/31 00:15:44;;;;;;;;;;;;;;;16.33;53.17;98240.53;4445940;32;19986;-72
2022/03/31 00:18:11;;;;;;;;;;;;;;;16.23;53.56;98240.84;4432868;32;20528;-71
2022/03/31 00:20:38;;;;;;;;;;;;;;;16.19;53.19;98244.47;4431184;32;20755;-71
2022/03/31 00:23:05;;;;;;;;;;;;;;;16.00;53.82;98225.06;4445635;32;20023;-72
2022/03/31 00:25:32;;;;;;;;;;;;;;;16.10;53.52;98231.69;4446541;32;20052;-71
2022/03/31 00:28:01;;;;;;;;;;;;;;;16.17;53.61;98230.59;4431194;32;19977;-72
2022/03/31 00:30:28;;;;;;;;;;;;;;;16.17;53.79;98234.97;4451046;32;20337;-71
2022/03/31 00:32:57;;;;;;;;;;;;;;;16.13;53.05;98228.16;4419828;32;19984;-70
2022/03/31 00:35:24;;;;;;;;;;;;;;;16.09;53.62;98219.56;4432060;32;19974;-71
2022/03/31 00:37:51;;;;;;;;;;;;;;;16.05;53.49;98215.34;4418223;32;19993;-71
2022/03/31 00:40:18;;;;;;;;;;;;;;;16.17;53.52;98214.94;4446604;32;20502;-77
2022/03/31 00:42:47;;;;;;;;;;;;;;;16.18;53.54;98216.66;4446450;32;20255;-73
2022/03/31 00:45:15;;;;;;;;;;;;;;;16.12;53.65;98216.00;4431335;32;19982;-75
2022/03/31 00:47:42;;;;;;;;;;;;;;;16.11;53.29;98219.50;4446682;32;20731;-72
2022/03/31 00:50:10;;;;;;;;;;;;;;;16.13;53.32;98218.56;4428321;32;20390;-71
2022/03/31 00:52:37;;;;;;;;;;;;;;;16.04;53.71;98211.00;4431492;32;20365;-73
2022/03/31 00:55:05;;;;;;;;;;;;;;;16.01;53.84;98211.09;4446182;32;20366;-70
2022/03/31 00:57:33;;;;;;;;;;;;;;;16.05;53.82;98204.91;4432629;32;20005;-72
2022/03/31 01:00:00;;;;;;;;;;;;;;;16.16;53.53;98186.28;4431217;32;20349;-71
2022/03/31 01:02:30;;;;;;;;;;;;;;;16.12;53.52;98187.28;4445381;32;20001;-72
2022/03/31 01:05:03;;;;;;;;;;;;;;;15.98;53.98;98182.50;4446238;32;20026;-72
2022/03/31 01:07:33;;;;;;;;;;;;;;;15.86;54.09;98189.00;4446236;32;20027;-72
2022/03/31 01:09:59;;;;;;;;;;;;;;;15.99;53.85;98189.44;4446478;32;20013;-73
2022/03/31 01:12:26;;;;;;;;;;;;;;;15.96;53.78;98179.09;4444745;32;19996;-72
2022/03/31 01:15:10;;;;;;;;;;;;;;;16.03;53.25;98181.44;4446171;32;19977;-72
2022/03/31 01:17:38;;;;;;;;;;;;;;;16.02;53.56;98176.31;4431784;32;20003;-72
2022/03/31 01:20:06;;;;;;;;;;;;;;;16.14;52.13;98173.25;4445235;32;19993;-72
2022/03/31 01:22:33;;;;;;;;;;;;;;;16.00;53.10;98167.66;4445721;32;19989;-70
2022/03/31 01:25:00;;;;;;;;;;;;;;;15.95;53.76;98166.94;4445979;32;19984;-72
2022/03/31 01:27:28;;;;;;;;;;;;;;;15.93;53.86;98169.63;4446612;32;19978;-73
2022/03/31 01:29:54;;;;;;;;;;;;;;;16.13;52.82;98166.34;4446483;32;20452;-71
2022/03/31 01:32:21;;;;;;;;;;;;;;;16.21;52.99;98164.34;4432368;32;19989;-71
2022/03/31 01:34:48;;;;;;;;;;;;;;;16.23;52.67;98162.50;4431814;32;20024;-71
2022/03/31 01:37:15;;;;;;;;;;;;;;;16.17;52.85;98157.50;4432588;32;20012;-71
2022/03/31 01:39:42;;;;;;;;;;;;;;;16.17;52.47;98154.88;4445533;32;20389;-76
2022/03/31 01:42:09;;;;;;;;;;;;;;;16.20;50.72;98152.16;4430518;32;20294;-73
2022/03/31 01:44:36;;;;;;;;;;;;;;;16.13;51.64;98145.47;4430662;32;20009;-71
2022/03/31 01:47:03;;;;;;;;;;;;;;;16.20;51.97;98148.72;4445808;32;20041;-72
2022/03/31 01:49:34;;;;;;;;;;;;;;;16.31;51.93;98153.59;4432116;32;20318;-72
2022/03/31 01:52:01;;;;;;;;;;;;;;;16.18;52.60;98154.00;4430535;32;20013;-72
2022/03/31 01:54:27;;;;;;;;;;;;;;;16.20;51.93;98152.16;4431892;32;19973;-71
2022/03/31 01:56:55;;;;;;;;;;;;;;;16.07;51.65;98155.25;4445557;32;19977;-72
2022/03/31 01:59:21;;;;;;;;;;;;;;;16.12;52.22;98148.97;4431884;32;20790;-71
2022/03/31 02:01:48;;;;;;;;;;;;;;;16.10;52.65;98137.72;4446078;32;20032;-72
2022/03/31 02:04:18;;;;;;;;;;;;;;;15.96;52.28;98142.56;4446094;32;19991;-71
2022/03/31 02:06:45;;;;;;;;;;;;;;;16.06;52.20;98138.75;4445292;32;20053;-72
2022/03/31 02:09:11;;;;;;;;;;;;;;;16.05;52.19;98142.28;4446430;32;20314;-71
2022/03/31 02:11:40;;;;;;;;;;;;;;;16.14;51.56;98136.72;4428720;32;19984;-72
2022/03/31 02:14:07;;;;;;;;;;;;;;;16.11;51.52;98126.37;4446310;32;19996;-71
2022/03/31 02:16:33;;;;;;;;;;;;;;;16.14;51.33;98126.28;4445272;32;20334;-70
2022/03/31 02:19:01;;;;;;;;;;;;;;;16.13;50.78;98129.78;4446152;32;19993;-70
2022/03/31 02:21:28;;;;;;;;;;;;;;;16.14;51.50;98131.50;4428349;32;19990;-72
2022/03/31 02:23:54;;;;;;;;;;;;;;;16.16;51.29;98119.25;4435172;32;20243;-72
2022/03/31 02:26:22;;;;;;;;;;;;;;;16.18;50.15;98122.69;4116736;32;10004134;-74
2022/03/31 02:28:48;;;;;;;;;;;;;;;16.21;50.14;98126.94;4403944;32;20014;-71
2022/03/31 02:31:15;;;;;;;;;;;;;;;16.09;50.37;98125.59;4430302;32;19985;-72
2022/03/31 02:33:42;;;;;;;;;;;;;;;16.20;50.67;98131.28;4403838;32;20365;-71
2022/03/31 02:36:09;;;;;;;;;;;;;;;16.21;50.61;98127.78;4430731;32;20311;-72
2022/03/31 02:38:36;;;;;;;;;;;;;;;16.22;50.67;98133.84;4429507;32;20005;-72
2022/03/31 02:41:05;;;;;;;;;;;;;;;16.16;50.88;98121.88;4430412;32;19989;-72
2022/03/31 02:43:32;;;;;;;;;;;;;;;16.19;49.67;98113.94;4430251;32;20439;-71
2022/03/31 02:45:59;;;;;;;;;;;;;;;16.13;50.42;98118.50;4445147;32;20365;-72
2022/03/31 02:48:26;;;;;;;;;;;;;;;16.22;50.12;98113.81;4445725;32;20042;-72
2022/03/31 02:50:53;;;;;;;;;;;;;;;16.30;49.85;98104.88;4440074;32;20032;-71
2022/03/31 02:56:05;;;;;;;;;;;;;;;16.36;49.90;98104.66;4445804;32;19977;-71
2022/03/31 02:58:32;;;;;;;;;;;;;;;16.23;50.66;98099.84;4442287;32;19998;-72
2022/03/31 03:00:58;;;;;;;;;;;;;;;16.15;50.67;98107.12;4444998;32;20326;-75
2022/03/31 03:03:27;;;;;;;;;;;;;;;16.03;51.47;98097.94;4432046;32;20409;-72
2022/03/31 03:05:53;;;;;;;;;;;;;;;16.14;51.43;98100.16;4431909;32;19975;-71
2022/03/31 03:08:20;;;;;;;;;;;;;;;16.07;51.54;98098.69;4445848;32;20060;-72
2022/03/31 03:10:48;;;;;;;;;;;;;;;15.97;51.90;98099.91;4425426;32;20325;-71
2022/03/31 03:13:15;;;;;;;;;;;;;;;16.00;51.76;98091.97;4447725;32;20510;-72
2022/03/31 03:15:45;;;;;;;;;;;;;;;15.99;51.44;98093.72;4447723;32;20474;-71
2022/03/31 03:18:12;;;;;;;;;;;;;;;16.08;50.53;98089.97;4447918;32;20342;-71
2022/03/31 03:20:39;;;;;;;;;;;;;;;15.91;50.79;98087.06;4439741;32;19990;-70
2022/03/31 03:23:05;;;;;;;;;;;;;;;15.81;51.65;98087.37;4430673;32;20310;-71
2022/03/31 03:25:32;;;;;;;;;;;;;;;15.94;50.28;98081.75;4433012;32;19996;-70
2022/03/31 03:28:00;;;;;;;;;;;;;;;15.95;50.49;98078.22;4405912;32;20083;-72
2022/03/31 03:30:26;;;;;;;;;;;;;;;16.02;50.21;98079.72;3800632;32;20002597;-70
2022/03/31 03:32:53;;;;;;;;;;;;;;;15.97;50.95;98081.63;4408980;32;20035;-72
2022/03/31 03:35:20;;;;;;;;;;;;;;;16.07;49.86;98084.78;4446746;32;20465;-71
2022/03/31 03:37:47;;;;;;;;;;;;;;;16.07;50.42;98083.03;4117742;32;10004365;-70
2022/03/31 03:40:15;;;;;;;;;;;;;;;15.85;50.86;98071.59;4402885;32;19974;-72
2022/03/31 03:42:42;;;;;;;;;;;;;;;16.09;49.84;98076.00;4402565;32;19985;-72
2022/03/31 03:45:10;;;;;;;;;;;;;;;15.96;50.29;98069.50;4416353;32;19981;-71
2022/03/31 03:47:37;;;;;;;;;;;;;;;16.08;49.80;98063.88;4416524;32;20032;-72
2022/03/31 03:50:04;;;;;;;;;;;;;;;16.17;49.55;98057.44;4414641;32;19981;-72
2022/03/31 03:52:31;;;;;;;;;;;;;;;16.25;48.98;98056.28;4094665;32;10004409;-72
2022/03/31 03:54:58;;;;;;;;;;;;;;;16.02;49.74;98057.09;4416505;32;19986;-73
2022/03/31 03:57:26;;;;;;;;;;;;;;;15.85;50.22;98058.56;4416958;32;20034;-71
2022/03/31 03:59:53;;;;;;;;;;;;;;;15.97;49.81;98052.94;4415429;32;20024;-71
2022/03/31 04:02:20;;;;;;;;;;;;;;;15.93;50.18;98056.56;4416415;32;19993;-72
2022/03/31 04:04:48;;;;;;;;;;;;;;;15.89;50.56;98052.31;4415370;32;20377;-72
2022/03/31 04:07:14;;;;;;;;;;;;;;;15.90;50.12;98054.06;4415619;32;19974;-69
2022/03/31 04:09:41;;;;;;;;;;;;;;;15.96;50.03;98043.41;4416414;32;20005;-71
2022/03/31 04:12:08;;;;;;;;;;;;;;;15.95;50.27;98052.13;4416245;32;19985;-71
2022/03/31 04:14:35;;;;;;;;;;;;;;;16.01;50.29;98052.75;4415824;32;20001;-71
2022/03/31 04:17:02;;;;;;;;;;;;;;;16.03;50.16;98048.34;4416223;32;19993;-72
2022/03/31 04:19:29;;;;;;;;;;;;;;;15.97;49.93;98045.94;4110185;32;10001013;-71
2022/03/31 04:21:56;;;;;;;;;;;;;;;16.17;48.91;98047.00;4415947;32;20327;-70
2022/03/31 04:24:22;;;;;;;;;;;;;;;15.95;49.84;98039.94;4416906;32;20229;-71
2022/03/31 04:26:49;;;;;;;;;;;;;;;15.95;50.09;98041.69;4417105;32;20368;-71
2022/03/31 04:29:16;;;;;;;;;;;;;;;15.96;49.76;98043.41;4416327;32;19984;-71
2022/03/31 04:31:43;;;;;;;;;;;;;;;15.86;50.16;98049.81;4415998;32;20045;-71
2022/03/31 04:34:11;;;;;;;;;;;;;;;15.97;49.74;98039.88;4416460;32;19986;-73
2022/03/31 04:36:38;;;;;;;;;;;;;;;16.05;49.48;98043.09;4416431;32;19996;-71
2022/03/31 04:39:05;;;;;;;;;;;;;;;15.98;49.78;98046.78;4410131;32;19978;-71
2022/03/31 04:41:32;;;;;;;;;;;;;;;15.95;49.76;98049.50;4425131;32;20010;-74
2022/03/31 04:43:59;;;;;;;;;;;;;;;15.92;49.67;98042.66;4400639;32;20045;-73
2022/03/31 04:46:26;;;;;;;;;;;;;;;15.86;50.07;98036.78;4401514;32;20039;-72
2022/03/31 04:48:53;;;;;;;;;;;;;;;15.78;51.07;98040.50;4414574;32;19992;-71
2022/03/31 04:51:20;;;;;;;;;;;;;;;15.90;51.30;98033.19;4414886;32;20532;-73
2022/03/31 04:53:47;;;;;;;;;;;;;;;15.89;50.66;98034.06;4416062;32;20036;-73
2022/03/31 04:56:14;;;;;;;;;;;;;;;15.88;50.38;98029.75;4416163;32;20708;-71
2022/03/31 04:58:41;;;;;;;;;;;;;;;15.90;49.99;98033.19;4416339;32;20020;-71
2022/03/31 05:01:08;;;;;;;;;;;;;;;15.87;50.42;98028.06;4415562;32;21288;-71
2022/03/31 05:03:35;;;;;;;;;;;;;;;15.94;49.88;98034.75;4415149;32;20015;-69
2022/03/31 05:06:02;;;;;;;;;;;;;;;15.91;49.89;98040.09;4416043;32;19994;-71
2022/03/31 05:08:29;;;;;;;;;;;;;;;15.75;50.67;98030.16;4415364;32;19978;-73
2022/03/31 05:10:56;;;;;;;;;;;;;;;15.84;50.76;98028.16;4416162;32;20369;-72
2022/03/31 05:13:23;;;;;;;;;;;;;;;15.58;51.36;98027.25;4427585;32;19997;-76
2022/03/31 05:15:50;;;;;;;;;;;;;;;15.67;51.89;98027.00;4446930;32;20068;-73
2022/03/31 05:18:17;;;;;;;;;;;;;;;15.83;51.29;98031.69;4446762;32;19988;-77
2022/03/31 05:20:44;;;;;;;;;;;;;;;15.86;51.87;98021.13;4444961;32;20001;-73
2022/03/31 05:23:11;;;;;;;;;;;;;;;15.52;52.63;98027.47;4446855;32;19981;-71
2022/03/31 05:25:38;;;;;;;;;;;;;;;15.51;52.57;98030.97;4446641;32;19981;-72
2022/03/31 05:28:05;;;;;;;;;;;;;;;15.79;51.69;98031.78;4444791;32;19991;-71
2022/03/31 05:30:32;;;;;;;;;;;;;;;15.82;51.61;98030.81;4446578;32;20008;-71
2022/03/31 05:33:00;;;;;;;;;;;;;;;15.89;51.42;98027.13;4443495;32;19986;-71
2022/03/31 05:35:27;;;;;;;;;;;;;;;15.91;51.22;98029.66;4446315;32;20046;-70
2022/03/31 05:37:54;;;;;;;;;;;;;;;16.00;50.83;98024.12;4419187;32;20818;-71
2022/03/31 05:40:22;;;;;;;;;;;;;;;15.92;51.49;98026.13;4446182;32;20003;-71
2022/03/31 05:42:48;;;;;;;;;;;;;;;15.85;51.54;98024.66;4432069;32;20030;-71
2022/03/31 05:45:15;;;;;;;;;;;;;;;15.74;51.66;98022.41;4444273;32;20031;-71
2022/03/31 05:47:43;;;;;;;;;;;;;;;15.94;51.06;98021.72;4445804;32;20398;-70
2022/03/31 05:50:11;;;;;;;;;;;;;;;15.83;51.53;98023.88;4445222;32;19993;-71
2022/03/31 05:52:38;;;;;;;;;;;;;;;15.57;52.31;98020.31;4444274;32;20046;-70
2022/03/31 05:55:06;;;;;;;;;;;;;;;15.83;51.92;98023.88;4431636;32;19985;-69
2022/03/31 05:57:33;;;;;;;;;;;;;;;15.88;51.48;98021.94;4437644;32;20504;-70
2022/03/31 06:00:00;;;;;;;;;;;;;;;15.88;51.78;98029.75;4446948;32;20467;-71
2022/03/31 06:02:37;;;;;;;;;;;;;;;15.89;51.89;98023.62;4437472;32;20305;-71
2022/03/31 06:05:15;;;;;;;;;;;;;;;15.92;52.61;98031.34;4439254;32;20322;-71
2022/03/31 06:07:42;;;;;;;;;;;;;;;15.93;52.92;98027.84;4446454;32;20031;-70
2022/03/31 06:10:09;;;;;;;;;;;;;;;15.81;52.67;98029.97;4441364;32;20012;-70
2022/03/31 06:12:36;;;;;;;;;;;;;;;15.89;53.21;98031.44;4438365;32;20034;-69
2022/03/31 06:15:03;;;;;;;;;;;;;;;15.76;54.02;98026.69;4436309;32;19989;-68
2022/03/31 06:17:30;;;;;;;;;;;;;;;15.77;54.03;98032.75;4445385;32;19973;-71
2022/03/31 06:19:57;;;;;;;;;;;;;;;15.73;53.59;98032.00;4442192;32;19993;-71
2022/03/31 06:22:23;;;;;;;;;;;;;;;15.81;52.54;98035.19;4445598;32;19989;-71
2022/03/31 06:24:50;;;;;;;;;;;;;;;15.86;52.46;98031.56;4445613;32;19973;-72
2022/03/31 06:27:18;;;;;;;;;;;;;;;15.75;52.93;98044.97;4445796;32;19984;-71
2022/03/31 06:29:45;;;;;;;;;;;;;;;15.59;53.11;98045.44;4444326;32;20047;-77
2022/03/31 06:32:13;;;;;;;;;;;;;;;15.58;53.29;98045.50;4445844;32;19981;-72
2022/03/31 06:34:40;;;;;;;;;;;;;;;15.73;53.06;98050.25;4443550;32;19989;-76
2022/03/31 06:37:08;;;;;;;;;;;;;;;15.88;52.79;98050.63;4445795;32;19976;-71
2022/03/31 06:39:41;;;;;;;;;;;;;;;15.86;53.12;98053.31;4445619;32;19981;-76
2022/03/31 06:42:08;;;;;;;;;;;;;;;15.71;54.01;98059.88;4445752;32;19985;-73
2022/03/31 06:44:35;;;;;;;;;;;;;;;15.77;54.07;98059.69;4450155;32;20303;-72
2022/03/31 06:47:02;;;;;;;;;;;;;;;15.94;53.53;98060.88;4449931;32;20007;-74
2022/03/31 06:49:29;;;;;;;;;;;;;;;15.94;53.43;98066.09;4460563;32;20038;-75
2022/03/31 06:51:55;;;;;;;;;;;;;;;15.75;54.23;98066.69;4450160;32;20079;-76
2022/03/31 06:54:22;;;;;;;;;;;;;;;15.91;53.94;98063.56;4449310;32;20000;-76
2022/03/31 06:56:51;;;;;;;;;;;;;;;15.81;54.39;98066.50;4450413;32;19997;-72
2022/03/31 06:59:20;;;;;;;;;;;;;;;15.87;53.81;98075.03;4450539;32;19973;-72
2022/03/31 07:01:50;;;;;;;;;;;;;;;15.83;54.48;98068.22;4449142;32;20009;-71
2022/03/31 07:04:17;;;;;;;;;;;;;;;15.76;54.18;98063.19;4450403;32;20036;-73
2022/03/31 07:06:44;;;;;;;;;;;;;;;15.80;54.46;98070.00;4450190;32;19993;-76
2022/03/31 07:09:11;;;;;;;;;;;;;;;15.86;54.81;98062.88;4449673;32;19989;-76
2022/03/31 07:11:38;;;;;;;;;;;;;;;15.86;54.65;98053.31;4450252;32;20052;-73
2022/03/31 07:14:06;;;;;;;;;;;;;;;15.65;55.31;98054.00;4445623;32;19993;-73
2022/03/31 07:16:33;;;;;;;;;;;;;;;15.59;56.11;98053.28;4445226;32;19993;-74
2022/03/31 07:19:01;;;;;;;;;;;;;;;15.57;56.56;98051.63;4449125;32;20028;-72
2022/03/31 07:21:31;;;;;;;;;;;;;;;15.66;56.39;98046.09;4431994;32;20007;-72
2022/03/31 07:24:00;;;;;;;;;;;;;;;15.63;56.59;98046.19;4449101;32;20720;-74
2022/03/31 07:26:28;;;;;;;;;;;;;;;15.66;55.99;98046.09;4281440;32;5088715;-74
2022/03/31 07:28:55;;;;;;;;;;;;;;;15.65;56.44;98049.63;4421354;32;882986;-73
2022/03/31 07:31:23;;;;;;;;;;;;;;;15.73;56.45;98049.37;4449763;32;20731;-75
2022/03/31 07:33:49;;;;;;;;;;;;;;;15.84;56.60;98049.03;4448290;32;19989;-73
2022/03/31 07:36:17;;;;;;;;;;;;;;;15.74;56.55;98049.34;4442457;32;19987;-77
2022/03/31 07:38:45;;;;;;;;;;;;;;;15.63;56.64;98043.59;4449206;32;20280;-74
2022/03/31 07:41:13;;;;;;;;;;;;;;;15.61;57.13;98048.03;4449941;32;20030;-74
2022/03/31 07:43:40;;;;;;;;;;;;;;;15.60;56.78;98046.28;4448610;32;19989;-73
2022/03/31 07:46:07;;;;;;;;;;;;;;;15.43;56.99;98046.00;4447474;32;19973;-73
2022/03/31 07:48:34;;;;;;;;;;;;;;;15.48;57.42;98057.16;4448820;32;19993;-74
2022/03/31 07:51:01;;;;;;;;;;;;;;;15.53;57.51;98050.03;4440578;32;20011;-74
2022/03/31 07:53:32;;;;;;;;;;;;;;;15.42;57.68;98047.78;4444432;32;20379;-73
2022/03/31 07:56:00;;;;;;;;;;;;;;;15.34;57.50;98045.38;4446360;32;19973;-73
2022/03/31 07:58:30;;;;;;;;;;;;;;;15.29;58.04;98042.09;4441080;32;20031;-75
2022/03/31 08:00:57;;;;;;;;;;;;;;;15.25;58.72;98045.72;4436102;32;20850;-80
2022/03/31 08:03:24;;;;;;;;;;;;;;;15.37;58.35;98048.81;4443570;32;19977;-73
2022/03/31 08:05:51;;;;;;;;;;;;;;;15.47;57.92;98039.78;4446642;32;19973;-75
2022/03/31 08:08:19;;;;;;;;;;;;;;;15.56;57.56;98044.69;4427337;32;19984;-76
2022/03/31 08:10:46;;;;;;;;;;;;;;;15.26;58.84;98041.34;4446140;32;19988;-77
2022/03/31 08:13:27;;;;;;;;;;;;;;;15.48;58.61;98041.50;4446910;32;20000;-73
2022/03/31 08:15:54;;;;;;;;;;;;;;;15.38;58.17;98038.34;4446111;32;19977;-77
2022/03/31 08:18:32;;;;;;;;;;;;;;;15.53;57.57;98029.16;4446265;32;19993;-74
2022/03/31 08:21:00;;;;;;;;;;;;;;;15.39;58.42;98023.56;4437944;32;20470;-74
2022/03/31 08:23:27;;;;;;;;;;;;;;;15.46;57.88;98027.66;4446509;32;20026;-74
2022/03/31 08:25:54;;;;;;;;;;;;;;;15.50;57.50;98018.81;4446913;32;20022;-78
2022/03/31 08:28:21;;;;;;;;;;;;;;;15.30;58.61;98014.28;4446698;32;20004;-78
2022/03/31 08:30:48;;;;;;;;;;;;;;;15.18;59.48;98007.69;4446566;32;20321;-78
2022/03/31 08:33:15;;;;;;;;;;;;;;;15.11;59.18;98000.97;4441947;32;20001;-78
2022/03/31 08:35:44;;;;;;;;;;;;;;;15.14;59.01;97992.22;4435960;32;20019;-74
2022/03/31 08:38:11;;;;;;;;;;;;;;;15.38;58.88;97993.16;4439061;32;20462;-78
2022/03/31 08:40:45;;;;;;;;;;;;;;;15.33;59.03;98001.97;4446519;32;20318;-73
2022/03/31 08:43:12;;;;;;;;;;;;;;;15.53;59.30;98003.06;4446905;32;20005;-73
2022/03/31 08:45:39;;;;;;;;;;;;;;;15.53;58.74;97993.50;4445205;32;19993;-72
2022/03/31 08:48:06;;;;;;;;;;;;;;;15.27;60.11;97985.69;4445337;32;19997;-74
2022/03/31 08:50:34;;;;;;;;;;;;;;;15.63;58.50;97993.19;4436152;32;19977;-73
2022/03/31 08:53:01;;;;;;;;;;;;;;;15.46;59.28;97985.94;4446463;32;19985;-76
2022/03/31 08:55:28;;;;;;;;;;;;;;;15.69;58.09;97990.41;4446847;32;19973;-73
2022/03/31 08:57:55;;;;;;;;;;;;;;;15.67;59.01;97987.88;4443253;32;20007;-71
2022/03/31 09:00:23;;;;;;;;;;;;;;;15.55;59.59;97980.41;4445328;32;20027;-73
2022/03/31 09:02:53;;;;;;;;;;;;;;;15.55;59.71;97977.81;4432052;32;19989;-73
2022/03/31 09:05:20;;;;;;;;;;;;;;;15.47;60.08;97977.19;4446325;32;20004;-74
2022/03/31 09:07:51;;;;;;;;;;;;;;;15.40;60.77;97970.50;4446792;32;20008;-74
2022/03/31 09:10:25;;;;;;;;;;;;;;;15.38;60.48;97972.28;4446176;32;19993;-74
2022/03/31 09:12:53;;;;;;;;;;;;;;;15.21;61.03;97960.69;4429776;32;19989;-77
2022/03/31 09:15:30;;;;;;;;;;;;;;;15.23;61.49;97964.09;4432749;32;20026;-77
2022/03/31 09:17:57;;;;;;;;;;;;;;;15.29;61.37;97963.91;4447923;32;19997;-76
2022/03/31 09:20:37;;;;;;;;;;;;;;;15.42;60.99;97955.66;4448276;32;19989;-75
2022/03/31 09:23:04;;;;;;;;;;;;;;;15.25;61.03;97951.88;4447676;32;19984;-78
2022/03/31 09:25:32;;;;;;;;;;;;;;;15.19;61.85;97946.88;4458367;32;19992;-78
2022/03/31 09:28:01;;;;;;;;;;;;;;;15.09;62.63;97948.03;4454506;32;20031;-78
2022/03/31 09:30:28;;;;;;;;;;;;;;;15.26;62.20;97940.53;4455780;32;20008;-76
2022/03/31 09:32:55;;;;;;;;;;;;;;;15.40;61.91;97941.81;4413580;32;20457;-78
2022/03/31 09:35:23;;;;;;;;;;;;;;;15.22;61.34;97940.66;4453889;32;19992;-76
2022/03/31 09:37:51;;;;;;;;;;;;;;;14.96;62.02;97938.91;4435254;32;19989;-81
2022/03/31 09:40:19;;;;;;;;;;;;;;;15.07;62.08;97939.44;4460265;32;20341;-76
2022/03/31 09:42:55;;;;;;;;;;;;;;;15.07;62.44;97936.84;4461682;32;19981;-81
2022/03/31 09:45:23;;;;;;;;;;;;;;;14.98;62.76;97937.13;4462000;32;20356;-78
2022/03/31 09:47:51;;;;;;;;;;;;;;;15.10;62.14;97931.53;4459386;32;19989;-76
2022/03/31 09:50:19;;;;;;;;;;;;;;;15.09;62.20;97940.22;4459676;32;19980;-81
2022/03/31 09:52:46;;;;;;;;;;;;;;;15.07;61.42;97934.22;4447329;32;20010;-77
2022/03/31 09:55:13;;;;;;;;;;;;;;;14.94;61.89;97930.31;4461649;32;20358;-79
2022/03/31 09:57:40;;;;;;;;;;;;;;;15.01;61.35;97921.41;4454731;32;20835;-78
2022/03/31 10:00:07;;;;;;;;;;;;;;;14.81;61.94;97924.66;4432631;32;20002;-80
2022/03/31 10:02:37;;;;;;;;;;;;;;;14.78;61.92;97920.37;4445810;32;19997;-78
2022/03/31 10:05:24;;;;;;;;;;;;;;;14.77;62.01;97923.03;4427344;32;20004;-80
2022/03/31 10:07:52;;;;;;;;;;;;;;;14.71;62.50;97923.22;4424572;32;19989;-78
2022/03/31 10:10:19;;;;;;;;;;;;;;;14.86;61.70;97918.38;4441813;32;20028;-79
2022/03/31 10:12:52;;;;;;;;;;;;;;;14.87;61.96;97909.69;4442389;32;20338;-81
2022/03/31 10:15:23;;;;;;;;;;;;;;;14.82;62.61;97910.72;4437732;32;19980;-77
2022/03/31 10:17:50;;;;;;;;;;;;;;;14.81;62.50;97904.66;4430035;32;20353;-81
2022/03/31 10:20:17;;;;;;;;;;;;;;;15.10;61.81;97905.47;4445873;32;19989;-76
2022/03/31 10:25:41;;;;;;;;;;;;;;;15.14;62.08;97907.06;4432152;32;19988;-78
2022/03/31 10:28:12;;;;;;;;;;;;;;;15.16;61.87;97905.25;4431512;32;20026;-79
2022/03/31 10:30:39;;;;;;;;;;;;;;;15.33;61.44;97902.06;4442126;32;20337;-81
2022/03/31 10:33:08;;;;;;;;;;;;;;;15.47;60.88;97904.19;4437431;32;19981;-82
2022/03/31 10:35:36;;;;;;;;;;;;;;;15.19;61.68;97910.38;4445492;32;19977;-80
2022/03/31 10:38:18;;;;;;;;;;;;;;;15.32;60.97;97896.00;4431627;32;19999;-79
2022/03/31 10:40:46;;;;;;;;;;;;;;;15.37;60.78;97902.81;4431660;32;19985;-79
2022/03/31 10:43:24;;;;;;;;;;;;;;;15.41;61.02;97893.97;4430704;32;19989;-82
2022/03/31 10:45:54;;;;;;;;;;;;;;;15.45;61.03;97893.00;4445996;32;20120;-81
2022/03/31 10:48:30;;;;;;;;;;;;;;;15.56;60.94;97893.44;4444675;32;19997;-79
2022/03/31 10:51:04;;;;;;;;;;;;;;;15.31;60.97;97873.44;4429696;32;20034;-80
2022/03/31 10:53:31;;;;;;;;;;;;;;;15.66;60.72;97858.31;4445740;32;20342;-81
2022/03/31 10:55:59;;;;;;;;;;;;;;;15.53;61.66;97857.03;4434380;32;20023;-79
2022/03/31 10:58:32;;;;;;;;;;;;;;;15.71;60.92;97856.41;4461221;32;19992;-82
2022/03/31 11:01:03;;;;;;;;;;;;;;;15.79;61.20;97853.53;4460933;32;19981;-77
2022/03/31 11:03:30;;;;;;;;;;;;;;;15.91;61.30;97852.22;4446383;32;20000;-76
2022/03/31 11:06:01;;;;;;;;;;;;;;;15.74;61.70;97850.25;4461497;32;19981;-76
2022/03/31 11:08:29;;;;;;;;;;;;;;;15.59;62.35;97846.41;4461137;32;20000;-76
2022/03/31 11:10:57;;;;;;;;;;;;;;;15.50;62.77;97841.50;4460690;32;19984;-76
2022/03/31 11:13:31;;;;;;;;;;;;;;;15.56;62.64;97836.91;4460959;32;19994;-76
2022/03/31 11:15:58;;;;;;;;;;;;;;;15.38;62.64;97841.94;4461203;32;19977;-78
2022/03/31 11:18:27;;;;;;;;;;;;;;;15.42;63.06;97833.12;4433787;32;20044;-78
2022/03/31 11:21:01;;;;;;;;;;;;;;;15.28;64.38;97836.19;4460431;32;19981;-74
2022/03/31 11:23:30;;;;;;;;;;;;;;;15.32;63.74;97832.59;4455723;32;19988;-74
2022/03/31 11:25:57;;;;;;;;;;;;;;;15.19;64.60;97826.97;4459837;32;19977;-81
2022/03/31 11:28:30;;;;;;;;;;;;;;;14.77;65.66;97829.25;4441353;32;20038;-78
2022/03/31 11:30:59;;;;;;;;;;;;;;;14.69;65.31;97821.72;4459835;32;19993;-75
2022/03/31 11:33:33;;;;;;;;;;;;;;;14.90;65.32;97814.94;4458664;32;20056;-79
2022/03/31 11:36:00;;;;;;;;;;;;;;;14.70;65.33;97818.19;4459751;32;19991;-76
2022/03/31 11:38:27;;;;;;;;;;;;;;;14.94;64.65;97815.69;4456922;32;20012;-75
2022/03/31 11:40:55;;;;;;;;;;;;;;;14.83;65.33;97814.28;4425398;32;20013;-81
2022/03/31 11:43:22;;;;;;;;;;;;;;;14.79;64.95;97812.69;4408402;32;19993;-81
2022/03/31 11:45:53;;;;;;;;;;;;;;;14.80;64.63;97808.31;4406376;32;19996;-74
2022/03/31 11:48:35;;;;;;;;;;;;;;;14.73;64.76;97807.69;4407791;32;20422;-80
2022/03/31 11:51:05;;;;;;;;;;;;;;;14.65;65.48;97807.94;4412795;32;20345;-73
2022/03/31 11:53:38;;;;;;;;;;;;;;;14.56;65.42;97804.78;4415434;32;20306;-75
2022/03/31 11:56:09;;;;;;;;;;;;;;;14.62;65.49;97805.44;4416142;32;19985;-80
2022/03/31 11:58:43;;;;;;;;;;;;;;;14.77;65.33;97804.09;4415864;32;20468;-79
2022/03/31 12:01:11;;;;;;;;;;;;;;;14.89;64.48;97795.84;4415916;32;19990;-73
2022/03/31 12:03:38;;;;;;;;;;;;;;;14.93;64.53;97787.91;4415938;32;19986;-77
2022/03/31 12:06:06;;;;;;;;;;;;;;;14.83;64.67;97777.81;4415528;32;20022;-73
2022/03/31 12:08:34;;;;;;;;;;;;;;;14.68;64.93;97773.16;4415276;32;20088;-78
2022/03/31 12:11:01;;;;;;;;;;;;;;;14.79;65.23;97765.81;4415809;32;20000;-77
2022/03/31 12:13:28;;;;;;;;;;;;;;;14.74;65.47;97759.91;4401666;32;19989;-82
2022/03/31 12:16:06;;;;;;;;;;;;;;;14.72;64.83;97748.69;4415838;32;19982;-75
2022/03/31 12:18:35;;;;;;;;;;;;;;;14.96;63.07;97740.91;4417648;32;20252;-83
2022/03/31 12:21:03;;;;;;;;;;;;;;;14.75;64.21;97746.00;4429855;32;20367;-81
2022/03/31 12:23:30;;;;;;;;;;;;;;;14.74;64.03;97752.09;4431069;32;19993;-77
2022/03/31 12:25:58;;;;;;;;;;;;;;;14.70;64.83;97749.66;4430819;32;19978;-75
2022/03/31 12:28:25;;;;;;;;;;;;;;;14.89;64.18;97748.94;4431032;32;19978;-75
2022/03/31 12:30:55;;;;;;;;;;;;;;;15.03;63.65;97742.44;4430875;32;20038;-78
2022/03/31 12:33:27;;;;;;;;;;;;;;;15.02;63.32;97740.69;4431269;32;20469;-76
2022/03/31 12:36:00;;;;;;;;;;;;;;;14.90;64.19;97742.00;4431087;32;20072;-78
2022/03/31 12:38:34;;;;;;;;;;;;;;;14.91;64.25;97737.66;4430778;32;20434;-75
2022/03/31 12:41:01;;;;;;;;;;;;;;;14.88;65.00;97736.84;4415691;32;20027;-76
2022/03/31 12:43:28;;;;;;;;;;;;;;;14.95;64.47;97728.81;4417050;32;20286;-78
2022/03/31 12:45:55;;;;;;;;;;;;;;;15.00;64.38;97737.31;4429040;32;20038;-75
2022/03/31 12:48:29;;;;;;;;;;;;;;;15.00;64.68;97742.53;4405890;32;19994;-76
2022/03/31 12:51:00;;;;;;;;;;;;;;;15.14;64.01;97734.22;4423350;32;20416;-77
2022/03/31 12:53:35;;;;;;;;;;;;;;;14.96;63.62;97725.28;4447253;32;20025;-78
2022/03/31 12:56:03;;;;;;;;;;;;;;;14.99;63.69;97712.16;4447692;32;19992;-78